sensor_id;sensor_type;location;lat;lon;timestamp;pressure;altitude;pressure_sealevel;temperature;humidity
46430;BME280;32131;53.454;-6.180;2023-04-01T00:00:05;100129.94;;;9.03;100.00
46430;BME280;32131;53.454;-6.180;2023-04-01T00:02:34;100127.31;;;8.98;100.00
46430;BME280;32131;53.454;-6.180;2023-04-01T00:05:02;100136.72;;;8.94;100.00
46430;BME280;32131;53.454;-6.180;2023-04-01T00:07:32;100128.09;;;8.91;100.00
46430;BME280;32131;53.454;-6.180;2023-04-01T00:10:01;100132.34;;;8.89;100.00
46430;BME280;32131;53.454;-6.180;2023-04-01T00:12:31;100134.88;;;8.86;100.00
46430;BME280;32131;53.454;-6.180;2023-04-01T00:14:59;100137.50;;;8.89;100.00
46430;BME280;32131;53.454;-6.180;2023-04-01T00:17:27;100135.72;;;8.85;100.00
46430;BME280;32131;53.454;-6.180;2023-04-01T00:19:56;100138.28;;;8.83;100.00
46430;BME280;32131;53.454;-6.180;2023-04-01T00:22:24;100137.44;;;8.84;100.00
46430;BME280;32131;53.454;-6.180;2023-04-01T00:24:53;100132.28;;;8.83;100.00
46430;BME280;32131;53.454;-6.180;2023-04-01T00:27:22;100136.53;;;8.82;100.00
46430;BME280;32131;53.454;-6.180;2023-04-01T00:29:51;100139.97;;;8.81;100.00
46430;BME280;32131;53.454;-6.180;2023-04-01T00:32:19;100139.09;;;8.80;100.00
46430;BME280;32131;53.454;-6.180;2023-04-01T00:34:50;100146.81;;;8.80;100.00
46430;BME280;32131;53.454;-6.180;2023-04-01T00:37:18;100146.75;;;8.76;100.00
46430;BME280;32131;53.454;-6.180;2023-04-01T00:39:47;100145.06;;;8.76;100.00
46430;BME280;32131;53.454;-6.180;2023-04-01T00:42:15;100151.06;;;8.75;100.00
46430;BME280;32131;53.454;-6.180;2023-04-01T00:44:49;100145.88;;;8.74;100.00
46430;BME280;32131;53.454;-6.180;2023-04-01T00:47:19;100151.00;;;8.74;100.00
46430;BME280;32131;53.454;-6.180;2023-04-01T00:49:51;100153.56;;;8.72;100.00
46430;BME280;32131;53.454;-6.180;2023-04-01T00:52:22;100149.28;;;8.71;100.00
46430;BME280;32131;53.454;-6.180;2023-04-01T00:54:55;100157.03;;;8.73;100.00
46430;BME280;32131;53.454;-6.180;2023-04-01T00:57:29;100155.31;;;8.72;100.00
46430;BME280;32131;53.454;-6.180;2023-04-01T01:00:00;100154.47;;;8.73;100.00
46430;BME280;32131;53.454;-6.180;2023-04-01T01:02:28;100152.69;;;8.70;100.00
46430;BME280;32131;53.454;-6.180;2023-04-01T01:04:58;100162.13;;;8.70;100.00
46430;BME280;32131;53.454;-6.180;2023-04-01T01:07:31;100147.53;;;8.70;100.00
46430;BME280;32131;53.454;-6.180;2023-04-01T01:10:04;100157.00;;;8.71;100.00
46430;BME280;32131;53.454;-6.180;2023-04-01T01:12:40;100160.41;;;8.69;100.00
46430;BME280;32131;53.454;-6.180;2023-04-01T01:15:17;100162.13;;;8.70;100.00
46430;BME280;32131;53.454;-6.180;2023-04-01T01:17:54;100164.69;;;8.68;100.00
46430;BME280;32131;53.454;-6.180;2023-04-01T01:20:40;100162.06;;;8.65;100.00
46430;BME280;32131;53.454;-6.180;2023-04-01T01:23:38;100169.78;;;8.65;100.00
46430;BME280;32131;53.454;-6.180;2023-04-01T01:29:11;100171.50;;;8.64;100.00
46430;BME280;32131;53.454;-6.180;2023-04-01T01:31:51;100180.06;;;8.63;100.00
46430;BME280;32131;53.454;-6.180;2023-04-01T01:34:32;100169.78;;;8.65;100.00
46430;BME280;32131;53.454;-6.180;2023-04-01T01:37:06;100169.78;;;8.67;100.00
46430;BME280;32131;53.454;-6.180;2023-04-01T01:39:37;100174.97;;;8.68;100.00
46430;BME280;32131;53.454;-6.180;2023-04-01T01:42:11;100176.69;;;8.68;100.00
46430;BME280;32131;53.454;-6.180;2023-04-01T01:44:43;100178.41;;;8.67;100.00
46430;BME280;32131;53.454;-6.180;2023-04-01T01:47:13;100176.69;;;8.69;100.00
46430;BME280;32131;53.454;-6.180;2023-04-01T01:49:43;100184.41;;;8.68;100.00
46430;BME280;32131;53.454;-6.180;2023-04-01T01:52:14;100174.09;;;8.66;100.00
46430;BME280;32131;53.454;-6.180;2023-04-01T01:54:47;100178.34;;;8.64;100.00
46430;BME280;32131;53.454;-6.180;2023-04-01T01:57:18;100176.66;;;8.66;100.00
46430;BME280;32131;53.454;-6.180;2023-04-01T01:59:48;100183.50;;;8.64;100.00
46430;BME280;32131;53.454;-6.180;2023-04-01T02:02:18;100186.97;;;8.66;100.00
46430;BME280;32131;53.454;-6.180;2023-04-01T02:04:47;100188.66;;;8.65;100.00
46430;BME280;32131;53.454;-6.180;2023-04-01T02:07:23;100187.81;;;8.67;100.00
46430;BME280;32131;53.454;-6.180;2023-04-01T02:09:53;100189.53;;;8.66;100.00
46430;BME280;32131;53.454;-6.180;2023-04-01T02:12:22;100190.34;;;8.63;100.00
46430;BME280;32131;53.454;-6.180;2023-04-01T02:14:53;100197.19;;;8.63;100.00
46430;BME280;32131;53.454;-6.180;2023-04-01T02:17:25;100198.03;;;8.62;100.00
46430;BME280;32131;53.454;-6.180;2023-04-01T02:19:57;100204.91;;;8.63;100.00
46430;BME280;32131;53.454;-6.180;2023-04-01T02:22:30;100204.06;;;8.62;100.00
46430;BME280;32131;53.454;-6.180;2023-04-01T02:25:04;100216.06;;;8.62;100.00
46430;BME280;32131;53.454;-6.180;2023-04-01T02:27:34;100217.75;;;8.60;100.00
46430;BME280;32131;53.454;-6.180;2023-04-01T02:30:02;100215.13;;;8.57;100.00
46430;BME280;32131;53.454;-6.180;2023-04-01T02:32:31;100205.66;;;8.56;100.00
46430;BME280;32131;53.454;-6.180;2023-04-01T02:35:01;100214.22;;;8.55;100.00
46430;BME280;32131;53.454;-6.180;2023-04-01T02:37:34;100208.19;;;8.53;100.00
46430;BME280;32131;53.454;-6.180;2023-04-01T02:40:06;100215.06;;;8.54;100.00
46430;BME280;32131;53.454;-6.180;2023-04-01T02:42:36;100216.78;;;8.53;100.00
46430;BME280;32131;53.454;-6.180;2023-04-01T02:45:05;100219.38;;;8.53;100.00
46430;BME280;32131;53.454;-6.180;2023-04-01T02:47:34;100219.38;;;8.55;100.00
46430;BME280;32131;53.454;-6.180;2023-04-01T02:50:02;100222.78;;;8.52;100.00
46430;BME280;32131;53.454;-6.180;2023-04-01T02:52:31;100221.06;;;8.53;100.00
46430;BME280;32131;53.454;-6.180;2023-04-01T02:55:01;100231.34;;;8.51;100.00
46430;BME280;32131;53.454;-6.180;2023-04-01T02:57:29;100233.00;;;8.47;100.00
46430;BME280;32131;53.454;-6.180;2023-04-01T02:59:57;100234.72;;;8.48;100.00
46430;BME280;32131;53.454;-6.180;2023-04-01T03:02:25;100233.00;;;8.47;100.00
46430;BME280;32131;53.454;-6.180;2023-04-01T03:04:54;100239.78;;;8.45;100.00
46430;BME280;32131;53.454;-6.180;2023-04-01T03:07:22;100241.50;;;8.43;100.00
46430;BME280;32131;53.454;-6.180;2023-04-01T03:09:50;100243.25;;;8.46;100.00
46430;BME280;32131;53.454;-6.180;2023-04-01T03:12:19;100248.38;;;8.46;100.00
46430;BME280;32131;53.454;-6.180;2023-04-01T03:14:47;100245.88;;;8.49;100.00
46430;BME280;32131;53.454;-6.180;2023-04-01T03:17:15;100254.47;;;8.49;100.00
46430;BME280;32131;53.454;-6.180;2023-04-01T03:19:43;100245.84;;;8.47;100.00
46430;BME280;32131;53.454;-6.180;2023-04-01T03:22:11;100255.31;;;8.48;100.00
46430;BME280;32131;53.454;-6.180;2023-04-01T03:24:40;100256.16;;;8.49;100.00
46430;BME280;32131;53.454;-6.180;2023-04-01T03:27:09;100254.44;;;8.48;100.00
46430;BME280;32131;53.454;-6.180;2023-04-01T03:29:39;100262.19;;;8.49;100.00
46430;BME280;32131;53.454;-6.180;2023-04-01T03:32:07;100257.06;;;8.49;100.00
46430;BME280;32131;53.454;-6.180;2023-04-01T03:34:35;100264.78;;;8.51;100.00
46430;BME280;32131;53.454;-6.180;2023-04-01T03:37:03;100266.50;;;8.51;100.00
46430;BME280;32131;53.454;-6.180;2023-04-01T03:39:32;100269.94;;;8.51;100.00
46430;BME280;32131;53.454;-6.180;2023-04-01T03:42:00;100271.69;;;8.54;100.00
46430;BME280;32131;53.454;-6.180;2023-04-01T03:44:30;100269.94;;;8.53;100.00
46430;BME280;32131;53.454;-6.180;2023-04-01T03:47:00;100270.84;;;8.53;100.00
46430;BME280;32131;53.454;-6.180;2023-04-01T03:49:29;100266.53;;;8.52;100.00
46430;BME280;32131;53.454;-6.180;2023-04-01T03:51:58;100269.94;;;8.51;100.00
46430;BME280;32131;53.454;-6.180;2023-04-01T03:54:26;100270.75;;;8.48;100.00
46430;BME280;32131;53.454;-6.180;2023-04-01T03:56:54;100278.50;;;8.50;100.00
46430;BME280;32131;53.454;-6.180;2023-04-01T03:59:24;100277.63;;;8.49;100.00
46430;BME280;32131;53.454;-6.180;2023-04-01T04:01:52;100283.63;;;8.50;100.00
46430;BME280;32131;53.454;-6.180;2023-04-01T04:04:22;100286.19;;;8.48;100.00
46430;BME280;32131;53.454;-6.180;2023-04-01T04:06:50;100281.03;;;8.48;100.00
46430;BME280;32131;53.454;-6.180;2023-04-01T04:09:18;100293.97;;;8.52;100.00
46430;BME280;32131;53.454;-6.180;2023-04-01T04:11:48;100288.84;;;8.53;100.00
46430;BME280;32131;53.454;-6.180;2023-04-01T04:14:17;100288.00;;;8.54;100.00
46430;BME280;32131;53.454;-6.180;2023-04-01T04:16:45;100296.50;;;8.50;100.00
46430;BME280;32131;53.454;-6.180;2023-04-01T04:19:13;100293.81;;;8.45;100.00
46430;BME280;32131;53.454;-6.180;2023-04-01T04:21:42;100293.78;;;8.44;100.00
46430;BME280;32131;53.454;-6.180;2023-04-01T04:24:11;100304.06;;;8.42;100.00
46430;BME280;32131;53.454;-6.180;2023-04-01T04:26:39;100301.44;;;8.41;100.00
46430;BME280;32131;53.454;-6.180;2023-04-01T04:29:07;100297.19;;;8.41;100.00
46430;BME280;32131;53.454;-6.180;2023-04-01T04:31:35;100305.75;;;8.40;100.00
46430;BME280;32131;53.454;-6.180;2023-04-01T04:34:03;100311.72;;;8.39;100.00
46430;BME280;32131;53.454;-6.180;2023-04-01T04:36:31;100309.16;;;8.41;100.00
46430;BME280;32131;53.454;-6.180;2023-04-01T04:39:01;100320.28;;;8.38;100.00
46430;BME280;32131;53.454;-6.180;2023-04-01T04:41:29;100316.81;;;8.36;100.00
46430;BME280;32131;53.454;-6.180;2023-04-01T04:43:58;100336.56;;;8.37;100.00
46430;BME280;32131;53.454;-6.180;2023-04-01T04:46:26;100332.25;;;8.36;100.00
46430;BME280;32131;53.454;-6.180;2023-04-01T04:48:54;100334.81;;;8.36;100.00
46430;BME280;32131;53.454;-6.180;2023-04-01T04:51:22;100335.69;;;8.35;100.00
46430;BME280;32131;53.454;-6.180;2023-04-01T04:53:50;100338.25;;;8.35;100.00
46430;BME280;32131;53.454;-6.180;2023-04-01T04:56:20;100342.53;;;8.36;100.00
46430;BME280;32131;53.454;-6.180;2023-04-01T04:58:52;100340.00;;;8.38;100.00
46430;BME280;32131;53.454;-6.180;2023-04-01T05:01:20;100345.16;;;8.38;100.00
46430;BME280;32131;53.454;-6.180;2023-04-01T05:03:48;100346.88;;;8.39;100.00
46430;BME280;32131;53.454;-6.180;2023-04-01T05:06:17;100348.56;;;8.38;100.00
46430;BME280;32131;53.454;-6.180;2023-04-01T05:08:49;100356.28;;;8.38;100.00
46430;BME280;32131;53.454;-6.180;2023-04-01T05:11:18;100360.59;;;8.38;100.00
46430;BME280;32131;53.454;-6.180;2023-04-01T05:13:48;100363.16;;;8.38;100.00
46430;BME280;32131;53.454;-6.180;2023-04-01T05:16:18;100359.66;;;8.34;100.00
46430;BME280;32131;53.454;-6.180;2023-04-01T05:18:47;100369.97;;;8.34;100.00
46430;BME280;32131;53.454;-6.180;2023-04-01T05:21:15;100373.38;;;8.33;100.00
46430;BME280;32131;53.454;-6.180;2023-04-01T05:23:43;100384.41;;;8.29;100.00
46430;BME280;32131;53.454;-6.180;2023-04-01T05:26:13;100384.31;;;8.23;100.00
46430;BME280;32131;53.454;-6.180;2023-04-01T05:28:42;100387.66;;;8.18;100.00
46430;BME280;32131;53.454;-6.180;2023-04-01T05:31:12;100392.75;;;8.15;100.00
46430;BME280;32131;53.454;-6.180;2023-04-01T05:33:40;100406.44;;;8.14;100.00
46430;BME280;32131;53.454;-6.180;2023-04-01T05:36:10;100408.16;;;8.14;100.00
46430;BME280;32131;53.454;-6.180;2023-04-01T05:38:39;100414.06;;;8.11;100.00
46430;BME280;32131;53.454;-6.180;2023-04-01T05:41:09;100420.91;;;8.09;100.00
46430;BME280;32131;53.454;-6.180;2023-04-01T05:43:37;100422.59;;;8.09;100.00
46430;BME280;32131;53.454;-6.180;2023-04-01T05:46:06;100424.31;;;8.08;100.00
46430;BME280;32131;53.454;-6.180;2023-04-01T05:48:35;100432.88;;;8.07;100.00
46430;BME280;32131;53.454;-6.180;2023-04-01T05:51:04;100426.81;;;8.05;100.00
46430;BME280;32131;53.454;-6.180;2023-04-01T05:53:32;100435.34;;;8.02;100.00
46430;BME280;32131;53.454;-6.180;2023-04-01T05:56:04;100443.09;;;8.04;100.00
46430;BME280;32131;53.454;-6.180;2023-04-01T05:58:33;100439.59;;;8.02;100.00
46430;BME280;32131;53.454;-6.180;2023-04-01T06:01:02;100448.19;;;8.01;100.00
46430;BME280;32131;53.454;-6.180;2023-04-01T06:03:39;100449.84;;;7.99;100.00
46430;BME280;32131;53.454;-6.180;2023-04-01T06:06:13;100452.44;;;8.00;100.00
46430;BME280;32131;53.454;-6.180;2023-04-01T06:08:42;100456.78;;;8.03;100.00
46430;BME280;32131;53.454;-6.180;2023-04-01T06:11:22;100469.69;;;8.06;100.00
46430;BME280;32131;53.454;-6.180;2023-04-01T06:14:10;100462.91;;;8.10;100.00
46430;BME280;32131;53.454;-6.180;2023-04-01T06:16:49;100467.25;;;8.12;100.00
46430;BME280;32131;53.454;-6.180;2023-04-01T06:19:35;100472.41;;;8.12;100.00
46430;BME280;32131;53.454;-6.180;2023-04-01T06:22:31;100475.81;;;8.11;100.00
46430;BME280;32131;53.454;-6.180;2023-04-01T06:25:20;100492.03;;;8.09;100.00
46430;BME280;32131;53.454;-6.180;2023-04-01T06:28:04;100489.50;;;8.10;100.00
46430;BME280;32131;53.454;-6.180;2023-04-01T06:30:40;100501.47;;;8.08;100.00
46430;BME280;32131;53.454;-6.180;2023-04-01T06:33:35;100501.41;;;8.07;100.00
46430;BME280;32131;53.454;-6.180;2023-04-01T06:36:40;100510.81;;;8.05;100.00
46430;BME280;32131;53.454;-6.180;2023-04-01T06:39:21;100522.00;;;8.07;100.00
46430;BME280;32131;53.454;-6.180;2023-04-01T06:42:10;100522.00;;;8.07;100.00
46430;BME280;32131;53.454;-6.180;2023-04-01T06:44:51;100531.44;;;8.08;100.00
46430;BME280;32131;53.454;-6.180;2023-04-01T06:47:35;100531.50;;;8.09;100.00
46430;BME280;32131;53.454;-6.180;2023-04-01T06:50:11;100540.94;;;8.10;100.00
46430;BME280;32131;53.454;-6.180;2023-04-01T06:52:48;100548.63;;;8.10;100.00
46430;BME280;32131;53.454;-6.180;2023-04-01T06:55:27;100558.19;;;8.14;100.00
46430;BME280;32131;53.454;-6.180;2023-04-01T06:58:03;100558.09;;;8.11;100.00
46430;BME280;32131;53.454;-6.180;2023-04-01T07:00:35;100565.78;;;8.10;100.00
46430;BME280;32131;53.454;-6.180;2023-04-01T07:03:13;100570.06;;;8.09;100.00
46430;BME280;32131;53.454;-6.180;2023-04-01T07:05:44;100575.16;;;8.08;100.00
46430;BME280;32131;53.454;-6.180;2023-04-01T07:08:18;100578.53;;;8.05;100.00
46430;BME280;32131;53.454;-6.180;2023-04-01T07:10:52;100588.75;;;8.02;100.00
46430;BME280;32131;53.454;-6.180;2023-04-01T07:13:27;100588.75;;;8.02;100.00
46430;BME280;32131;53.454;-6.180;2023-04-01T07:16:11;100593.81;;;7.99;100.00
46430;BME280;32131;53.454;-6.180;2023-04-01T07:18:45;100597.31;;;8.01;100.00
46430;BME280;32131;53.454;-6.180;2023-04-01T07:21:22;100596.44;;;8.02;100.00
46430;BME280;32131;53.454;-6.180;2023-04-01T07:23:54;100605.91;;;8.03;100.00
46430;BME280;32131;53.454;-6.180;2023-04-01T07:26:24;100615.47;;;8.09;100.00
46430;BME280;32131;53.454;-6.180;2023-04-01T07:28:54;100615.44;;;8.07;100.00
46430;BME280;32131;53.454;-6.180;2023-04-01T07:31:34;100617.09;;;8.05;100.00
46430;BME280;32131;53.454;-6.180;2023-04-01T07:34:10;100626.59;;;8.08;100.00
46430;BME280;32131;53.454;-6.180;2023-04-01T07:36:48;100625.84;;;8.12;100.00
46430;BME280;32131;53.454;-6.180;2023-04-01T07:39:33;100628.44;;;8.13;100.00
46430;BME280;32131;53.454;-6.180;2023-04-01T07:42:09;100638.75;;;8.15;100.00
46430;BME280;32131;53.454;-6.180;2023-04-01T07:44:46;100649.09;;;8.16;100.00
46430;BME280;32131;53.454;-6.180;2023-04-01T07:47:28;100658.47;;;8.14;100.00
46430;BME280;32131;53.454;-6.180;2023-04-01T07:50:10;100661.06;;;8.14;100.00
46430;BME280;32131;53.454;-6.180;2023-04-01T07:52:44;100667.13;;;8.18;100.00
46430;BME280;32131;53.454;-6.180;2023-04-01T07:55:22;100672.38;;;8.21;100.00
46430;BME280;32131;53.454;-6.180;2023-04-01T07:57:56;100683.59;;;8.25;100.00
46430;BME280;32131;53.454;-6.180;2023-04-01T08:00:29;100683.63;;;8.26;100.00
46430;BME280;32131;53.454;-6.180;2023-04-01T08:03:19;100695.63;;;8.26;100.00
46430;BME280;32131;53.454;-6.180;2023-04-01T08:05:55;100708.53;;;8.29;100.00
46430;BME280;32131;53.454;-6.180;2023-04-01T08:08:32;100712.06;;;8.32;100.00
46430;BME280;32131;53.454;-6.180;2023-04-01T08:11:12;100718.16;;;8.36;100.00
46430;BME280;32131;53.454;-6.180;2023-04-01T08:13:45;100720.72;;;8.36;100.00
46430;BME280;32131;53.454;-6.180;2023-04-01T08:16:19;100723.19;;;8.31;100.00
46430;BME280;32131;53.454;-6.180;2023-04-01T08:19:01;100724.81;;;8.28;100.00
46430;BME280;32131;53.454;-6.180;2023-04-01T08:21:35;100733.44;;;8.30;100.00
46430;BME280;32131;53.454;-6.180;2023-04-01T08:24:20;100749.88;;;8.35;100.00
46430;BME280;32131;53.454;-6.180;2023-04-01T08:26:54;100748.38;;;8.43;100.00
46430;BME280;32131;53.454;-6.180;2023-04-01T08:29:26;100747.84;;;8.57;100.00
46430;BME280;32131;53.454;-6.180;2023-04-01T08:32:03;100760.00;;;8.62;100.00
46430;BME280;32131;53.454;-6.180;2023-04-01T08:34:36;100765.09;;;8.61;100.00
46430;BME280;32131;53.454;-6.180;2023-04-01T08:37:08;100770.47;;;8.70;100.00
46430;BME280;32131;53.454;-6.180;2023-04-01T08:39:41;100772.31;;;8.76;100.00
46430;BME280;32131;53.454;-6.180;2023-04-01T08:42:35;100786.94;;;8.77;100.00
46430;BME280;32131;53.454;-6.180;2023-04-01T08:45:20;100787.88;;;8.80;100.00
46430;BME280;32131;53.454;-6.180;2023-04-01T08:47:59;100794.19;;;8.93;100.00
46430;BME280;32131;53.454;-6.180;2023-04-01T08:50:43;100798.88;;;9.11;100.00
46430;BME280;32131;53.454;-6.180;2023-04-01T08:53:21;100800.81;;;9.22;100.00
46430;BME280;32131;53.454;-6.180;2023-04-01T08:56:06;100807.00;;;9.30;100.00
46430;BME280;32131;53.454;-6.180;2023-04-01T08:58:57;100810.53;;;9.34;100.00
46430;BME280;32131;53.454;-6.180;2023-04-01T09:01:47;100812.28;;;9.36;100.00
46430;BME280;32131;53.454;-6.180;2023-04-01T09:04:26;100817.06;;;9.59;100.00
46430;BME280;32131;53.454;-6.180;2023-04-01T09:07:12;100822.53;;;9.74;100.00
46430;BME280;32131;53.454;-6.180;2023-04-01T09:10:16;100833.22;;;9.93;100.00
46430;BME280;32131;53.454;-6.180;2023-04-01T09:12:55;100838.22;;;9.85;100.00
46430;BME280;32131;53.454;-6.180;2023-04-01T09:15:53;100844.22;;;9.84;100.00
46430;BME280;32131;53.454;-6.180;2023-04-01T09:18:41;100845.78;;;9.76;100.00
46430;BME280;32131;53.454;-6.180;2023-04-01T09:21:39;100845.94;;;9.84;100.00
46430;BME280;32131;53.454;-6.180;2023-04-01T09:24:24;100852.78;;;9.83;100.00
46430;BME280;32131;53.454;-6.180;2023-04-01T09:27:04;100851.13;;;9.85;100.00
46430;BME280;32131;53.454;-6.180;2023-04-01T09:33:15;100867.72;;;9.98;100.00
46430;BME280;32131;53.454;-6.180;2023-04-01T09:35:48;100873.50;;;9.88;100.00
46430;BME280;32131;53.454;-6.180;2023-04-01T09:38:23;100872.69;;;9.89;100.00
46430;BME280;32131;53.454;-6.180;2023-04-01T09:40:58;100883.06;;;9.92;100.00
46430;BME280;32131;53.454;-6.180;2023-04-01T09:43:44;100881.41;;;9.94;100.00
46430;BME280;32131;53.454;-6.180;2023-04-01T09:46:23;100890.25;;;10.07;100.00
46430;BME280;32131;53.454;-6.180;2023-04-01T09:49:25;100888.63;;;10.12;100.00
46430;BME280;32131;53.454;-6.180;2023-04-01T09:52:11;100896.16;;;10.01;100.00
46430;BME280;32131;53.454;-6.180;2023-04-01T09:54:57;100897.75;;;9.96;100.00
46430;BME280;32131;53.454;-6.180;2023-04-01T09:57:44;100913.13;;;9.90;100.00
46430;BME280;32131;53.454;-6.180;2023-04-01T10:00:39;100914.47;;;9.74;100.00
46430;BME280;32131;53.454;-6.180;2023-04-01T10:03:47;100915.44;;;9.78;100.00
46430;BME280;32131;53.454;-6.180;2023-04-01T10:16:20;100941.81;;;10.05;100.00
46430;BME280;32131;53.454;-6.180;2023-04-01T10:19:12;100934.97;;;10.07;100.00
46430;BME280;32131;53.454;-6.180;2023-04-01T10:22:09;100948.91;;;10.16;100.00
46430;BME280;32131;53.454;-6.180;2023-04-01T10:25:10;100955.06;;;10.22;100.00
46430;BME280;32131;53.454;-6.180;2023-04-01T10:31:20;100956.25;;;10.84;100.00
46430;BME280;32131;53.454;-6.180;2023-04-01T10:36:56;100976.72;;;11.78;100.00
46430;BME280;32131;53.454;-6.180;2023-04-01T10:46:02;100992.94;;;11.66;100.00
46430;BME280;32131;53.454;-6.180;2023-04-01T10:52:23;101008.75;;;11.86;100.00
46430;BME280;32131;53.454;-6.180;2023-04-01T10:55:24;101007.47;;;11.59;100.00
46430;BME280;32131;53.454;-6.180;2023-04-01T11:01:29;101011.75;;;11.57;100.00
46430;BME280;32131;53.454;-6.180;2023-04-01T11:07:52;101021.94;;;11.48;100.00
46430;BME280;32131;53.454;-6.180;2023-04-01T11:10:57;101026.94;;;11.39;100.00
46430;BME280;32131;53.454;-6.180;2023-04-01T11:14:16;101038.09;;;11.35;100.00
46430;BME280;32131;53.454;-6.180;2023-04-01T11:17:21;101039.44;;;11.64;100.00
46430;BME280;32131;53.454;-6.180;2023-04-01T11:20:45;101042.63;;;12.00;100.00
46430;BME280;32131;53.454;-6.180;2023-04-01T11:23:43;101044.00;;;12.41;100.00
46430;BME280;32131;53.454;-6.180;2023-04-01T11:26:52;101057.09;;;12.52;100.00
46430;BME280;32131;53.454;-6.180;2023-04-01T11:29:44;101058.94;;;12.61;100.00
46430;BME280;32131;53.454;-6.180;2023-04-01T11:32:55;101065.16;;;12.77;98.45
46430;BME280;32131;53.454;-6.180;2023-04-01T11:36:12;101066.09;;;12.82;97.27
46430;BME280;32131;53.454;-6.180;2023-04-01T11:38:54;101081.81;;;12.97;96.53
46430;BME280;32131;53.454;-6.180;2023-04-01T11:41:32;101082.59;;;12.92;95.57
46430;BME280;32131;53.454;-6.180;2023-04-01T11:44:16;101087.94;;;13.07;95.23
46430;BME280;32131;53.454;-6.180;2023-04-01T11:47:09;101091.44;;;13.08;93.76
46430;BME280;32131;53.454;-6.180;2023-04-01T11:49:49;101095.72;;;13.04;93.45
46430;BME280;32131;53.454;-6.180;2023-04-01T11:52:33;101103.50;;;13.07;92.33
46430;BME280;32131;53.454;-6.180;2023-04-01T11:55:40;101105.34;;;13.17;91.09
46430;BME280;32131;53.454;-6.180;2023-04-01T11:58:27;101105.41;;;13.24;90.72
46430;BME280;32131;53.454;-6.180;2023-04-01T12:01:20;101117.69;;;13.40;90.95
46430;BME280;32131;53.454;-6.180;2023-04-01T12:04:19;101111.56;;;13.33;89.14
46430;BME280;32131;53.454;-6.180;2023-04-01T12:07:05;101121.94;;;13.35;88.81
46430;BME280;32131;53.454;-6.180;2023-04-01T12:09:46;101126.28;;;13.34;88.09
46430;BME280;32131;53.454;-6.180;2023-04-01T12:12:27;101134.06;;;13.34;88.00
46430;BME280;32131;53.454;-6.180;2023-04-01T12:15:05;101138.31;;;13.31;86.80
46430;BME280;32131;53.454;-6.180;2023-04-01T12:17:46;101130.66;;;13.39;85.88
